sensor_id;sensor_type;location;lat;lon;timestamp;P1;durP1;ratioP1;P2;durP2;ratioP2
75129;SDS011;63703;44.716;37.846;2023-02-13T00:00:27;4.85;;;4.47;;
75129;SDS011;63703;44.716;37.846;2023-02-13T00:02:53;6.85;;;6.35;;
75129;SDS011;63703;44.716;37.846;2023-02-13T00:05:19;4.63;;;4.22;;
75129;SDS011;63703;44.716;37.846;2023-02-13T00:07:45;5.25;;;4.80;;
75129;SDS011;63703;44.716;37.846;2023-02-13T00:10:11;6.38;;;5.75;;
75129;SDS011;63703;44.716;37.846;2023-02-13T00:12:37;5.18;;;4.78;;
75129;SDS011;63703;44.716;37.846;2023-02-13T00:15:03;9.63;;;6.28;;
75129;SDS011;63703;44.716;37.846;2023-02-13T00:17:30;6.78;;;6.18;;
75129;SDS011;63703;44.716;37.846;2023-02-13T00:19:56;6.13;;;5.63;;
75129;SDS011;63703;44.716;37.846;2023-02-13T00:22:22;6.25;;;5.60;;
75129;SDS011;63703;44.716;37.846;2023-02-13T00:24:48;5.93;;;5.53;;
75129;SDS011;63703;44.716;37.846;2023-02-13T00:27:14;6.07;;;5.28;;
75129;SDS011;63703;44.716;37.846;2023-02-13T00:29:40;5.60;;;5.10;;
75129;SDS011;63703;44.716;37.846;2023-02-13T00:32:06;12.52;;;5.82;;
75129;SDS011;63703;44.716;37.846;2023-02-13T00:34:33;5.78;;;5.28;;
75129;SDS011;63703;44.716;37.846;2023-02-13T00:37:01;6.20;;;5.60;;
75129;SDS011;63703;44.716;37.846;2023-02-13T00:39:28;7.97;;;5.47;;
75129;SDS011;63703;44.716;37.846;2023-02-13T00:41:54;6.40;;;5.90;;
75129;SDS011;63703;44.716;37.846;2023-02-13T00:44:20;7.60;;;7.10;;
75129;SDS011;63703;44.716;37.846;2023-02-13T00:46:46;5.63;;;5.13;;
75129;SDS011;63703;44.716;37.846;2023-02-13T00:49:12;1.95;;;1.25;;
75129;SDS011;63703;44.716;37.846;2023-02-13T00:51:38;5.50;;;5.10;;
75129;SDS011;63703;44.716;37.846;2023-02-13T00:54:04;7.57;;;6.00;;
75129;SDS011;63703;44.716;37.846;2023-02-13T00:56:30;5.18;;;4.78;;
75129;SDS011;63703;44.716;37.846;2023-02-13T00:58:56;8.45;;;7.68;;
75129;SDS011;63703;44.716;37.846;2023-02-13T01:01:23;6.22;;;5.78;;
75129;SDS011;63703;44.716;37.846;2023-02-13T01:03:49;6.40;;;5.85;;
75129;SDS011;63703;44.716;37.846;2023-02-13T01:06:15;6.90;;;6.30;;
75129;SDS011;63703;44.716;37.846;2023-02-13T01:08:41;6.95;;;5.05;;
75129;SDS011;63703;44.716;37.846;2023-02-13T01:11:07;4.65;;;4.25;;
75129;SDS011;63703;44.716;37.846;2023-02-13T01:13:34;6.22;;;5.22;;
75129;SDS011;63703;44.716;37.846;2023-02-13T01:16:00;4.68;;;4.18;;
75129;SDS011;63703;44.716;37.846;2023-02-13T01:18:26;7.18;;;6.20;;
75129;SDS011;63703;44.716;37.846;2023-02-13T01:21:01;3.40;;;1.65;;
75129;SDS011;63703;44.716;37.846;2023-02-13T01:23:32;5.25;;;4.85;;
75129;SDS011;63703;44.716;37.846;2023-02-13T01:25:59;5.38;;;4.85;;
75129;SDS011;63703;44.716;37.846;2023-02-13T01:28:27;5.15;;;4.70;;
75129;SDS011;63703;44.716;37.846;2023-02-13T01:30:54;5.80;;;5.25;;
75129;SDS011;63703;44.716;37.846;2023-02-13T01:33:21;5.57;;;5.18;;
75129;SDS011;63703;44.716;37.846;2023-02-13T01:35:48;5.57;;;5.18;;
75129;SDS011;63703;44.716;37.846;2023-02-13T01:38:15;6.40;;;5.93;;
75129;SDS011;63703;44.716;37.846;2023-02-13T01:40:45;8.75;;;6.80;;
75129;SDS011;63703;44.716;37.846;2023-02-13T01:43:12;5.72;;;5.22;;
75129;SDS011;63703;44.716;37.846;2023-02-13T01:45:39;7.07;;;5.18;;
75129;SDS011;63703;44.716;37.846;2023-02-13T01:48:06;6.80;;;6.15;;
75129;SDS011;63703;44.716;37.846;2023-02-13T01:50:41;5.63;;;4.97;;
75129;SDS011;63703;44.716;37.846;2023-02-13T01:53:26;6.88;;;6.20;;
75129;SDS011;63703;44.716;37.846;2023-02-13T01:56:02;7.05;;;6.07;;
75129;SDS011;63703;44.716;37.846;2023-02-13T01:58:34;6.90;;;5.22;;
75129;SDS011;63703;44.716;37.846;2023-02-13T02:01:03;7.15;;;6.50;;
75129;SDS011;63703;44.716;37.846;2023-02-13T02:03:34;7.05;;;6.55;;
75129;SDS011;63703;44.716;37.846;2023-02-13T02:06:08;7.00;;;6.43;;
75129;SDS011;63703;44.716;37.846;2023-02-13T02:08:38;6.40;;;6.00;;
75129;SDS011;63703;44.716;37.846;2023-02-13T02:11:08;7.07;;;6.55;;
75129;SDS011;63703;44.716;37.846;2023-02-13T02:13:42;6.80;;;6.20;;
75129;SDS011;63703;44.716;37.846;2023-02-13T02:16:09;5.45;;;5.05;;
75129;SDS011;63703;44.716;37.846;2023-02-13T02:18:36;7.22;;;6.72;;
75129;SDS011;63703;44.716;37.846;2023-02-13T02:29:51;7.07;;;6.57;;
75129;SDS011;63703;44.716;37.846;2023-02-13T02:33:02;5.93;;;5.43;;
75129;SDS011;63703;44.716;37.846;2023-02-13T02:35:41;6.45;;;6.00;;
75129;SDS011;63703;44.716;37.846;2023-02-13T02:50:07;6.97;;;6.40;;
75129;SDS011;63703;44.716;37.846;2023-02-13T02:53:00;8.02;;;7.40;;
75129;SDS011;63703;44.716;37.846;2023-02-13T02:55:51;5.78;;;5.35;;
75129;SDS011;63703;44.716;37.846;2023-02-13T03:01:34;7.53;;;6.82;;
75129;SDS011;63703;44.716;37.846;2023-02-13T03:04:25;6.30;;;5.90;;
75129;SDS011;63703;44.716;37.846;2023-02-13T03:07:16;8.32;;;7.65;;
75129;SDS011;63703;44.716;37.846;2023-02-13T03:09:45;5.75;;;5.32;;
75129;SDS011;63703;44.716;37.846;2023-02-13T03:12:43;4.95;;;3.05;;
75129;SDS011;63703;44.716;37.846;2023-02-13T03:15:32;7.22;;;6.75;;
75129;SDS011;63703;44.716;37.846;2023-02-13T03:18:20;6.68;;;6.15;;
75129;SDS011;63703;44.716;37.846;2023-02-13T03:21:40;8.25;;;7.45;;
75129;SDS011;63703;44.716;37.846;2023-02-13T03:24:26;5.60;;;5.20;;
75129;SDS011;63703;44.716;37.846;2023-02-13T03:27:03;6.28;;;5.78;;
75129;SDS011;63703;44.716;37.846;2023-02-13T03:30:15;5.22;;;4.82;;
75129;SDS011;63703;44.716;37.846;2023-02-13T03:32:59;8.32;;;7.78;;
75129;SDS011;63703;44.716;37.846;2023-02-13T03:41:37;6.75;;;6.15;;
75129;SDS011;63703;44.716;37.846;2023-02-13T03:44:10;5.90;;;5.47;;
75129;SDS011;63703;44.716;37.846;2023-02-13T03:46:39;6.93;;;6.45;;
75129;SDS011;63703;44.716;37.846;2023-02-13T03:49:10;5.85;;;5.13;;
75129;SDS011;63703;44.716;37.846;2023-02-13T03:52:06;5.97;;;5.53;;
75129;SDS011;63703;44.716;37.846;2023-02-13T03:54:42;7.07;;;6.57;;
75129;SDS011;63703;44.716;37.846;2023-02-13T03:57:30;6.78;;;6.22;;
75129;SDS011;63703;44.716;37.846;2023-02-13T04:00:17;6.60;;;6.20;;
75129;SDS011;63703;44.716;37.846;2023-02-13T04:03:21;5.93;;;5.53;;
75129;SDS011;63703;44.716;37.846;2023-02-13T04:06:02;5.95;;;5.32;;
75129;SDS011;63703;44.716;37.846;2023-02-13T04:08:31;7.30;;;6.80;;
75129;SDS011;63703;44.716;37.846;2023-02-13T04:11:07;2.35;;;1.77;;
75129;SDS011;63703;44.716;37.846;2023-02-13T04:13:43;5.45;;;5.05;;
75129;SDS011;63703;44.716;37.846;2023-02-13T04:16:17;5.80;;;5.40;;
75129;SDS011;63703;44.716;37.846;2023-02-13T04:18:47;6.10;;;5.60;;
75129;SDS011;63703;44.716;37.846;2023-02-13T04:21:16;5.75;;;5.25;;
75129;SDS011;63703;44.716;37.846;2023-02-13T04:23:42;5.20;;;4.70;;
75129;SDS011;63703;44.716;37.846;2023-02-13T04:26:11;5.95;;;5.45;;
75129;SDS011;63703;44.716;37.846;2023-02-13T04:28:42;6.63;;;6.13;;
75129;SDS011;63703;44.716;37.846;2023-02-13T04:31:07;6.63;;;6.10;;
75129;SDS011;63703;44.716;37.846;2023-02-13T04:33:33;3.42;;;3.13;;
75129;SDS011;63703;44.716;37.846;2023-02-13T04:35:59;7.38;;;6.88;;
75129;SDS011;63703;44.716;37.846;2023-02-13T04:38:25;7.18;;;6.63;;
75129;SDS011;63703;44.716;37.846;2023-02-13T04:40:51;6.15;;;5.75;;
75129;SDS011;63703;44.716;37.846;2023-02-13T04:43:17;6.25;;;5.75;;
75129;SDS011;63703;44.716;37.846;2023-02-13T04:45:46;6.43;;;5.95;;
75129;SDS011;63703;44.716;37.846;2023-02-13T04:48:13;3.50;;;3.20;;
75129;SDS011;63703;44.716;37.846;2023-02-13T04:50:40;6.20;;;5.57;;
75129;SDS011;63703;44.716;37.846;2023-02-13T04:53:06;7.75;;;6.32;;
75129;SDS011;63703;44.716;37.846;2023-02-13T04:55:32;7.30;;;6.03;;
75129;SDS011;63703;44.716;37.846;2023-02-13T04:57:58;5.45;;;4.97;;
75129;SDS011;63703;44.716;37.846;2023-02-13T05:00:24;7.30;;;6.60;;
75129;SDS011;63703;44.716;37.846;2023-02-13T05:02:51;5.60;;;5.15;;
75129;SDS011;63703;44.716;37.846;2023-02-13T05:05:18;5.28;;;4.88;;
75129;SDS011;63703;44.716;37.846;2023-02-13T05:07:44;5.30;;;4.90;;
75129;SDS011;63703;44.716;37.846;2023-02-13T05:10:11;7.68;;;7.05;;
75129;SDS011;63703;44.716;37.846;2023-02-13T05:12:37;6.55;;;6.00;;
75129;SDS011;63703;44.716;37.846;2023-02-13T05:15:04;5.70;;;5.28;;
75129;SDS011;63703;44.716;37.846;2023-02-13T05:17:30;6.28;;;5.78;;
75129;SDS011;63703;44.716;37.846;2023-02-13T05:19:56;7.43;;;6.75;;
75129;SDS011;63703;44.716;37.846;2023-02-13T05:22:23;5.82;;;5.43;;
75129;SDS011;63703;44.716;37.846;2023-02-13T05:25:07;6.05;;;5.53;;
75129;SDS011;63703;44.716;37.846;2023-02-13T05:27:33;7.35;;;6.75;;
75129;SDS011;63703;44.716;37.846;2023-02-13T05:30:02;7.13;;;5.60;;
75129;SDS011;63703;44.716;37.846;2023-02-13T05:32:28;6.07;;;5.57;;
75129;SDS011;63703;44.716;37.846;2023-02-13T05:34:54;6.40;;;5.28;;
75129;SDS011;63703;44.716;37.846;2023-02-13T05:37:20;2.40;;;2.13;;
75129;SDS011;63703;44.716;37.846;2023-02-13T05:39:46;6.55;;;5.97;;
75129;SDS011;63703;44.716;37.846;2023-02-13T05:42:12;8.35;;;6.22;;
75129;SDS011;63703;44.716;37.846;2023-02-13T05:44:38;6.03;;;5.60;;
75129;SDS011;63703;44.716;37.846;2023-02-13T05:47:03;6.90;;;6.40;;
75129;SDS011;63703;44.716;37.846;2023-02-13T05:49:30;5.82;;;5.32;;
75129;SDS011;63703;44.716;37.846;2023-02-13T05:51:56;6.70;;;6.20;;
75129;SDS011;63703;44.716;37.846;2023-02-13T05:54:21;4.70;;;4.25;;
75129;SDS011;63703;44.716;37.846;2023-02-13T05:56:47;4.55;;;2.53;;
75129;SDS011;63703;44.716;37.846;2023-02-13T05:59:13;6.43;;;5.93;;
75129;SDS011;63703;44.716;37.846;2023-02-13T06:01:39;3.00;;;1.23;;
75129;SDS011;63703;44.716;37.846;2023-02-13T06:04:05;5.80;;;5.40;;
75129;SDS011;63703;44.716;37.846;2023-02-13T06:06:31;8.07;;;7.47;;
75129;SDS011;63703;44.716;37.846;2023-02-13T06:08:57;10.68;;;5.90;;
75129;SDS011;63703;44.716;37.846;2023-02-13T06:11:23;6.90;;;6.18;;
75129;SDS011;63703;44.716;37.846;2023-02-13T06:13:49;6.25;;;5.82;;
75129;SDS011;63703;44.716;37.846;2023-02-13T06:16:15;5.80;;;5.28;;
75129;SDS011;63703;44.716;37.846;2023-02-13T06:18:40;6.38;;;5.80;;
75129;SDS011;63703;44.716;37.846;2023-02-13T06:21:07;9.02;;;6.00;;
75129;SDS011;63703;44.716;37.846;2023-02-13T06:23:33;6.05;;;5.43;;
75129;SDS011;63703;44.716;37.846;2023-02-13T06:26:06;6.80;;;5.82;;
75129;SDS011;63703;44.716;37.846;2023-02-13T06:28:33;4.72;;;4.35;;
75129;SDS011;63703;44.716;37.846;2023-02-13T06:30:59;7.90;;;5.43;;
75129;SDS011;63703;44.716;37.846;2023-02-13T06:33:26;6.53;;;5.97;;
75129;SDS011;63703;44.716;37.846;2023-02-13T06:35:52;6.00;;;5.50;;
75129;SDS011;63703;44.716;37.846;2023-02-13T06:38:18;6.82;;;5.00;;
75129;SDS011;63703;44.716;37.846;2023-02-13T06:40:44;7.97;;;5.85;;
75129;SDS011;63703;44.716;37.846;2023-02-13T06:43:11;6.32;;;5.85;;
75129;SDS011;63703;44.716;37.846;2023-02-13T06:45:37;5.55;;;5.15;;
75129;SDS011;63703;44.716;37.846;2023-02-13T06:48:03;6.38;;;5.80;;
75129;SDS011;63703;44.716;37.846;2023-02-13T06:50:29;6.22;;;5.72;;
75129;SDS011;63703;44.716;37.846;2023-02-13T06:52:55;6.07;;;5.57;;
75129;SDS011;63703;44.716;37.846;2023-02-13T06:55:21;7.53;;;6.85;;
75129;SDS011;63703;44.716;37.846;2023-02-13T06:57:47;6.82;;;6.07;;
75129;SDS011;63703;44.716;37.846;2023-02-13T07:00:13;5.82;;;5.32;;
75129;SDS011;63703;44.716;37.846;2023-02-13T07:02:41;4.60;;;4.20;;
75129;SDS011;63703;44.716;37.846;2023-02-13T07:05:09;5.05;;;4.65;;
75129;SDS011;63703;44.716;37.846;2023-02-13T07:07:36;6.05;;;5.25;;
75129;SDS011;63703;44.716;37.846;2023-02-13T07:10:05;8.25;;;5.55;;
75129;SDS011;63703;44.716;37.846;2023-02-13T07:12:32;7.30;;;6.72;;
75129;SDS011;63703;44.716;37.846;2023-02-13T07:15:01;6.68;;;6.03;;
75129;SDS011;63703;44.716;37.846;2023-02-13T07:17:28;8.55;;;5.53;;
75129;SDS011;63703;44.716;37.846;2023-02-13T07:19:54;7.00;;;4.90;;
75129;SDS011;63703;44.716;37.846;2023-02-13T07:22:20;7.30;;;5.10;;
75129;SDS011;63703;44.716;37.846;2023-02-13T07:24:46;6.03;;;5.05;;
75129;SDS011;63703;44.716;37.846;2023-02-13T07:27:12;6.57;;;6.05;;
75129;SDS011;63703;44.716;37.846;2023-02-13T07:29:37;5.63;;;5.13;;
75129;SDS011;63703;44.716;37.846;2023-02-13T07:32:03;5.72;;;5.32;;
75129;SDS011;63703;44.716;37.846;2023-02-13T07:34:31;5.70;;;5.15;;
75129;SDS011;63703;44.716;37.846;2023-02-13T07:36:57;6.18;;;5.10;;
75129;SDS011;63703;44.716;37.846;2023-02-13T07:39:23;2.75;;;2.22;;
75129;SDS011;63703;44.716;37.846;2023-02-13T07:41:50;6.10;;;5.63;;
75129;SDS011;63703;44.716;37.846;2023-02-13T07:44:16;5.50;;;4.97;;
75129;SDS011;63703;44.716;37.846;2023-02-13T07:46:42;5.47;;;4.97;;
75129;SDS011;63703;44.716;37.846;2023-02-13T07:49:08;5.63;;;5.05;;
75129;SDS011;63703;44.716;37.846;2023-02-13T07:51:34;5.25;;;4.55;;
75129;SDS011;63703;44.716;37.846;2023-02-13T07:54:00;4.88;;;3.85;;
75129;SDS011;63703;44.716;37.846;2023-02-13T07:56:27;5.30;;;4.80;;
75129;SDS011;63703;44.716;37.846;2023-02-13T07:58:53;3.55;;;3.13;;
75129;SDS011;63703;44.716;37.846;2023-02-13T08:01:19;4.38;;;3.97;;
75129;SDS011;63703;44.716;37.846;2023-02-13T08:03:49;5.60;;;5.20;;
75129;SDS011;63703;44.716;37.846;2023-02-13T08:06:15;4.80;;;4.10;;
75129;SDS011;63703;44.716;37.846;2023-02-13T08:08:42;6.32;;;5.72;;
75129;SDS011;63703;44.716;37.846;2023-02-13T08:11:16;6.05;;;5.50;;
75129;SDS011;63703;44.716;37.846;2023-02-13T08:14:15;6.20;;;5.70;;
75129;SDS011;63703;44.716;37.846;2023-02-13T08:16:41;5.68;;;5.15;;
75129;SDS011;63703;44.716;37.846;2023-02-13T08:19:07;6.13;;;5.65;;
75129;SDS011;63703;44.716;37.846;2023-02-13T08:21:33;3.35;;;2.92;;
75129;SDS011;63703;44.716;37.846;2023-02-13T08:23:59;5.05;;;4.55;;
75129;SDS011;63703;44.716;37.846;2023-02-13T08:26:25;5.65;;;5.15;;
75129;SDS011;63703;44.716;37.846;2023-02-13T08:28:51;6.35;;;4.65;;
75129;SDS011;63703;44.716;37.846;2023-02-13T08:31:17;5.47;;;5.05;;
75129;SDS011;63703;44.716;37.846;2023-02-13T08:33:43;4.55;;;4.15;;
75129;SDS011;63703;44.716;37.846;2023-02-13T08:36:09;4.65;;;4.25;;
75129;SDS011;63703;44.716;37.846;2023-02-13T08:38:35;5.10;;;4.22;;
75129;SDS011;63703;44.716;37.846;2023-02-13T08:41:01;4.30;;;3.97;;
75129;SDS011;63703;44.716;37.846;2023-02-13T08:43:27;6.03;;;5.57;;
75129;SDS011;63703;44.716;37.846;2023-02-13T08:45:52;3.88;;;3.47;;
75129;SDS011;63703;44.716;37.846;2023-02-13T08:48:18;5.50;;;4.57;;
75129;SDS011;63703;44.716;37.846;2023-02-13T08:50:44;6.60;;;5.72;;
75129;SDS011;63703;44.716;37.846;2023-02-13T08:53:10;6.00;;;3.83;;
75129;SDS011;63703;44.716;37.846;2023-02-13T08:55:36;4.35;;;3.95;;
75129;SDS011;63703;44.716;37.846;2023-02-13T08:58:02;3.17;;;2.60;;
75129;SDS011;63703;44.716;37.846;2023-02-13T09:00:29;3.72;;;1.60;;
75129;SDS011;63703;44.716;37.846;2023-02-13T09:03:02;4.15;;;3.85;;
75129;SDS011;63703;44.716;37.846;2023-02-13T09:05:29;4.32;;;3.92;;
75129;SDS011;63703;44.716;37.846;2023-02-13T09:07:59;6.75;;;3.72;;
75129;SDS011;63703;44.716;37.846;2023-02-13T09:10:27;6.72;;;4.65;;
75129;SDS011;63703;44.716;37.846;2023-02-13T09:12:54;4.60;;;4.20;;
75129;SDS011;63703;44.716;37.846;2023-02-13T09:15:20;4.15;;;3.33;;
75129;SDS011;63703;44.716;37.846;2023-02-13T09:17:46;3.53;;;2.63;;
75129;SDS011;63703;44.716;37.846;2023-02-13T09:20:12;4.93;;;4.43;;
75129;SDS011;63703;44.716;37.846;2023-02-13T09:22:38;5.28;;;4.88;;
75129;SDS011;63703;44.716;37.846;2023-02-13T09:25:05;5.90;;;4.82;;
75129;SDS011;63703;44.716;37.846;2023-02-13T09:27:32;10.38;;;3.92;;
75129;SDS011;63703;44.716;37.846;2023-02-13T09:29:59;5.70;;;5.18;;
75129;SDS011;63703;44.716;37.846;2023-02-13T09:32:25;6.10;;;3.78;;
75129;SDS011;63703;44.716;37.846;2023-02-13T09:34:51;5.13;;;3.05;;
75129;SDS011;63703;44.716;37.846;2023-02-13T09:37:18;4.50;;;4.10;;
75129;SDS011;63703;44.716;37.846;2023-02-13T09:39:44;5.55;;;3.95;;
75129;SDS011;63703;44.716;37.846;2023-02-13T09:42:20;5.70;;;4.30;;
75129;SDS011;63703;44.716;37.846;2023-02-13T09:44:54;5.47;;;3.53;;
75129;SDS011;63703;44.716;37.846;2023-02-13T09:47:33;3.85;;;3.13;;
75129;SDS011;63703;44.716;37.846;2023-02-13T09:52:34;3.85;;;3.13;;
75129;SDS011;63703;44.716;37.846;2023-02-13T09:55:02;5.25;;;4.75;;
75129;SDS011;63703;44.716;37.846;2023-02-13T09:57:57;3.15;;;2.65;;
75129;SDS011;63703;44.716;37.846;2023-02-13T10:00:38;4.38;;;3.22;;
75129;SDS011;63703;44.716;37.846;2023-02-13T10:06:14;3.80;;;3.50;;
75129;SDS011;63703;44.716;37.846;2023-02-13T10:08:48;5.40;;;4.75;;
75129;SDS011;63703;44.716;37.846;2023-02-13T10:14:23;4.97;;;3.17;;
75129;SDS011;63703;44.716;37.846;2023-02-13T10:17:34;4.47;;;4.05;;
75129;SDS011;63703;44.716;37.846;2023-02-13T10:19:47;9.73;;;2.92;;
75129;SDS011;63703;44.716;37.846;2023-02-13T10:22:25;5.13;;;3.65;;
75129;SDS011;63703;44.716;37.846;2023-02-13T10:27:26;6.05;;;5.55;;
75129;SDS011;63703;44.716;37.846;2023-02-13T10:30:01;4.18;;;3.33;;
75129;SDS011;63703;44.716;37.846;2023-02-13T10:32:40;5.35;;;3.50;;
75129;SDS011;63703;44.716;37.846;2023-02-13T10:35:44;5.32;;;4.15;;
75129;SDS011;63703;44.716;37.846;2023-02-13T10:38:31;4.38;;;3.83;;
75129;SDS011;63703;44.716;37.846;2023-02-13T10:41:02;5.82;;;2.92;;
75129;SDS011;63703;44.716;37.846;2023-02-13T10:46:53;4.25;;;3.75;;
75129;SDS011;63703;44.716;37.846;2023-02-13T11:00:17;6.15;;;3.08;;
75129;SDS011;63703;44.716;37.846;2023-02-13T11:02:55;4.93;;;2.25;;
75129;SDS011;63703;44.716;37.846;2023-02-13T11:05:24;6.28;;;3.17;;
75129;SDS011;63703;44.716;37.846;2023-02-13T11:08:00;7.60;;;3.70;;
75129;SDS011;63703;44.716;37.846;2023-02-13T11:10:27;4.32;;;3.10;;
75129;SDS011;63703;44.716;37.846;2023-02-13T11:12:53;8.82;;;3.00;;
75129;SDS011;63703;44.716;37.846;2023-02-13T11:15:29;5.78;;;3.00;;
75129;SDS011;63703;44.716;37.846;2023-02-13T11:18:02;6.50;;;2.95;;
75129;SDS011;63703;44.716;37.846;2023-02-13T11:20:43;4.60;;;2.95;;
75129;SDS011;63703;44.716;37.846;2023-02-13T11:23:14;5.22;;;2.40;;
75129;SDS011;63703;44.716;37.846;2023-02-13T11:26:12;5.65;;;2.97;;
75129;SDS011;63703;44.716;37.846;2023-02-13T11:28:58;3.97;;;2.17;;
75129;SDS011;63703;44.716;37.846;2023-02-13T11:31:36;6.95;;;2.75;;
75129;SDS011;63703;44.716;37.846;2023-02-13T11:36:50;3.25;;;1.90;;
75129;SDS011;63703;44.716;37.846;2023-02-13T11:39:18;3.72;;;2.17;;
75129;SDS011;63703;44.716;37.846;2023-02-13T11:41:46;5.07;;;2.28;;
75129;SDS011;63703;44.716;37.846;2023-02-13T11:46:46;13.77;;;1.70;;
75129;SDS011;63703;44.716;37.846;2023-02-13T11:49:27;3.83;;;2.85;;
75129;SDS011;63703;44.716;37.846;2023-02-13T11:52:00;4.82;;;2.47;;
75129;SDS011;63703;44.716;37.846;2023-02-13T11:56:58;4.80;;;3.28;;
75129;SDS011;63703;44.716;37.846;2023-02-13T11:59:28;4.65;;;2.60;;
75129;SDS011;63703;44.716;37.846;2023-02-13T12:02:01;4.90;;;2.60;;
75129;SDS011;63703;44.716;37.846;2023-02-13T12:04:29;7.05;;;2.70;;
75129;SDS011;63703;44.716;37.846;2023-02-13T12:09:41;4.35;;;1.52;;
75129;SDS011;63703;44.716;37.846;2023-02-13T12:12:14;5.60;;;2.05;;
75129;SDS011;63703;44.716;37.846;2023-02-13T12:14:44;3.47;;;2.03;;
75129;SDS011;63703;44.716;37.846;2023-02-13T12:17:21;8.15;;;2.67;;
75129;SDS011;63703;44.716;37.846;2023-02-13T12:19:49;5.53;;;2.40;;
75129;SDS011;63703;44.716;37.846;2023-02-13T12:22:29;7.43;;;1.92;;
75129;SDS011;63703;44.716;37.846;2023-02-13T12:25:14;4.97;;;0.63;;
75129;SDS011;63703;44.716;37.846;2023-02-13T12:28:12;5.38;;;2.67;;
75129;SDS011;63703;44.716;37.846;2023-02-13T12:36:43;4.28;;;2.03;;
75129;SDS011;63703;44.716;37.846;2023-02-13T12:44:57;5.28;;;2.67;;
75129;SDS011;63703;44.716;37.846;2023-02-13T12:47:29;3.67;;;2.05;;
75129;SDS011;63703;44.716;37.846;2023-02-13T12:50:05;4.03;;;2.13;;
75129;SDS011;63703;44.716;37.846;2023-02-13T12:55:44;5.60;;;2.13;;
75129;SDS011;63703;44.716;37.846;2023-02-13T13:20:32;5.20;;;2.25;;
75129;SDS011;63703;44.716;37.846;2023-02-13T13:28:15;5.80;;;2.05;;
75129;SDS011;63703;44.716;37.846;2023-02-13T13:31:21;6.25;;;2.38;;
75129;SDS011;63703;44.716;37.846;2023-02-13T13:33:50;14.23;;;1.70;;
75129;SDS011;63703;44.716;37.846;2023-02-13T13:39:03;5.90;;;1.70;;
75129;SDS011;63703;44.716;37.846;2023-02-13T13:50:05;4.03;;;2.50;;
75129;SDS011;63703;44.716;37.846;2023-02-13T13:53:04;6.43;;;2.75;;
75129;SDS011;63703;44.716;37.846;2023-02-13T13:58:25;6.32;;;0.93;;
75129;SDS011;63703;44.716;37.846;2023-02-13T14:01:21;3.85;;;1.40;;
75129;SDS011;63703;44.716;37.846;2023-02-13T14:03:57;11.48;;;2.50;;
75129;SDS011;63703;44.716;37.846;2023-02-13T14:07:12;7.57;;;2.05;;
75129;SDS011;63703;44.716;37.846;2023-02-13T14:09:57;4.38;;;0.73;;
75129;SDS011;63703;44.716;37.846;2023-02-13T14:26:27;8.13;;;2.67;;
75129;SDS011;63703;44.716;37.846;2023-02-13T14:31:21;5.93;;;3.00;;
75129;SDS011;63703;44.716;37.846;2023-02-13T14:33:56;4.22;;;2.63;;
75129;SDS011;63703;44.716;37.846;2023-02-13T14:36:29;6.70;;;3.28;;
75129;SDS011;63703;44.716;37.846;2023-02-13T14:39:05;9.05;;;2.70;;
75129;SDS011;63703;44.716;37.846;2023-02-13T14:44:17;10.75;;;3.67;;
75129;SDS011;63703;44.716;37.846;2023-02-13T14:46:44;5.47;;;3.22;;
75129;SDS011;63703;44.716;37.846;2023-02-13T14:49:19;6.70;;;3.28;;
75129;SDS011;63703;44.716;37.846;2023-02-13T14:51:58;3.65;;;2.85;;
75129;SDS011;63703;44.716;37.846;2023-02-13T14:54:50;10.90;;;4.30;;
75129;SDS011;63703;44.716;37.846;2023-02-13T14:57:25;7.75;;;4.43;;
75129;SDS011;63703;44.716;37.846;2023-02-13T15:00:00;6.60;;;3.97;;
75129;SDS011;63703;44.716;37.846;2023-02-13T15:02:52;5.45;;;3.53;;
75129;SDS011;63703;44.716;37.846;2023-02-13T15:05:21;6.07;;;4.85;;
75129;SDS011;63703;44.716;37.846;2023-02-13T15:10:43;6.53;;;5.03;;
75129;SDS011;63703;44.716;37.846;2023-02-13T15:13:13;6.05;;;5.53;;
75129;SDS011;63703;44.716;37.846;2023-02-13T15:15:50;5.57;;;4.82;;
75129;SDS011;63703;44.716;37.846;2023-02-13T15:18:24;7.53;;;6.75;;
75129;SDS011;63703;44.716;37.846;2023-02-13T15:20:56;4.70;;;4.20;;
75129;SDS011;63703;44.716;37.846;2023-02-13T15:23:25;4.15;;;3.78;;
75129;SDS011;63703;44.716;37.846;2023-02-13T15:26:00;10.10;;;5.80;;
75129;SDS011;63703;44.716;37.846;2023-02-13T15:28:28;12.52;;;6.30;;
75129;SDS011;63703;44.716;37.846;2023-02-13T15:33:33;16.40;;;9.48;;
75129;SDS011;63703;44.716;37.846;2023-02-13T15:36:00;9.98;;;7.40;;
75129;SDS011;63703;44.716;37.846;2023-02-13T15:41:05;5.97;;;5.07;;
75129;SDS011;63703;44.716;37.846;2023-02-13T15:43:54;10.35;;;5.13;;
75129;SDS011;63703;44.716;37.846;2023-02-13T15:46:29;7.28;;;6.35;;
75129;SDS011;63703;44.716;37.846;2023-02-13T15:48:59;7.15;;;5.82;;
75129;SDS011;63703;44.716;37.846;2023-02-13T15:51:29;7.38;;;6.63;;
75129;SDS011;63703;44.716;37.846;2023-02-13T15:53:57;5.82;;;4.72;;
75129;SDS011;63703;44.716;37.846;2023-02-13T15:56:24;6.90;;;6.20;;
75129;SDS011;63703;44.716;37.846;2023-02-13T15:58:51;7.38;;;6.50;;
75129;SDS011;63703;44.716;37.846;2023-02-13T16:01:19;7.20;;;5.82;;
75129;SDS011;63703;44.716;37.846;2023-02-13T16:03:46;9.02;;;6.65;;
75129;SDS011;63703;44.716;37.846;2023-02-13T16:06:15;13.68;;;10.15;;
75129;SDS011;63703;44.716;37.846;2023-02-13T16:08:52;11.30;;;8.88;;
75129;SDS011;63703;44.716;37.846;2023-02-13T16:14:02;11.95;;;7.25;;
75129;SDS011;63703;44.716;37.846;2023-02-13T16:16:33;11.80;;;6.85;;
75129;SDS011;63703;44.716;37.846;2023-02-13T16:19:30;8.65;;;7.25;;
75129;SDS011;63703;44.716;37.846;2023-02-13T16:21:55;17.88;;;9.35;;
75129;SDS011;63703;44.716;37.846;2023-02-13T16:24:22;10.90;;;8.15;;
75129;SDS011;63703;44.716;37.846;2023-02-13T16:26:50;11.20;;;7.68;;
75129;SDS011;63703;44.716;37.846;2023-02-13T16:29:17;9.85;;;6.90;;
75129;SDS011;63703;44.716;37.846;2023-02-13T16:31:48;8.80;;;7.57;;
75129;SDS011;63703;44.716;37.846;2023-02-13T16:34:22;9.32;;;8.40;;
75129;SDS011;63703;44.716;37.846;2023-02-13T16:36:50;17.25;;;9.65;;
75129;SDS011;63703;44.716;37.846;2023-02-13T16:39:27;8.82;;;7.95;;
75129;SDS011;63703;44.716;37.846;2023-02-13T16:41:56;7.35;;;6.65;;
75129;SDS011;63703;44.716;37.846;2023-02-13T16:44:27;9.93;;;6.75;;
75129;SDS011;63703;44.716;37.846;2023-02-13T16:46:55;8.02;;;7.28;;
75129;SDS011;63703;44.716;37.846;2023-02-13T16:49:32;7.63;;;6.93;;
75129;SDS011;63703;44.716;37.846;2023-02-13T17:02:26;7.40;;;6.82;;
75129;SDS011;63703;44.716;37.846;2023-02-13T17:07:34;7.13;;;6.53;;
75129;SDS011;63703;44.716;37.846;2023-02-13T17:10:26;6.57;;;5.82;;
75129;SDS011;63703;44.716;37.846;2023-02-13T17:12:57;5.97;;;5.47;;
75129;SDS011;63703;44.716;37.846;2023-02-13T17:15:44;6.65;;;5.15;;
75129;SDS011;63703;44.716;37.846;2023-02-13T17:18:11;9.05;;;5.68;;
75129;SDS011;63703;44.716;37.846;2023-02-13T17:20:39;20.35;;;15.80;;
75129;SDS011;63703;44.716;37.846;2023-02-13T17:23:07;21.33;;;18.25;;
75129;SDS011;63703;44.716;37.846;2023-02-13T17:25:42;7.13;;;6.43;;
75129;SDS011;63703;44.716;37.846;2023-02-13T17:28:16;7.03;;;6.43;;
75129;SDS011;63703;44.716;37.846;2023-02-13T17:30:45;7.68;;;6.13;;
75129;SDS011;63703;44.716;37.846;2023-02-13T17:33:21;10.90;;;9.73;;
75129;SDS011;63703;44.716;37.846;2023-02-13T17:35:53;11.25;;;9.68;;
75129;SDS011;63703;44.716;37.846;2023-02-13T17:38:19;6.82;;;6.10;;
75129;SDS011;63703;44.716;37.846;2023-02-13T17:40:45;8.93;;;6.45;;
75129;SDS011;63703;44.716;37.846;2023-02-13T17:43:12;8.02;;;7.20;;